Time;durP1;ratioP1;P1;durP2;ratioP2;P2;SDS_P1;SDS_P2;PMS_P1;PMS_P2;Temp;Humidity;BMP_temperature;BMP_pressure;BME280_temperature;BME280_humidity;BME280_pressure;Samples;Min_cycle;Max_cycle;Signal;HPM_P1;HPM_P2
2023/12/23 00:01:24;;;;;;;0.80;0.80;;;;;;;7.32;84.13;97820.81;5030645;28;20846;-75
2023/12/23 00:03:52;;;;;;;0.80;0.80;;;;;;;7.41;83.34;97832.56;5031327;28;20364;-76
2023/12/23 00:06:18;;;;;;;0.80;0.80;;;;;;;7.34;84.43;97848.28;5029817;28;20037;-76
2023/12/23 00:08:43;;;;;;;0.80;0.80;;;;;;;7.36;84.18;97855.44;5033794;28;20033;-75
2023/12/23 00:11:09;;;;;;;0.70;0.70;;;;;;;7.39;83.90;97852.88;5033474;28;20072;-76
2023/12/23 00:13:34;;;;;;;0.80;0.80;;;;;;;7.40;83.20;97867.91;5032486;28;20041;-76
2023/12/23 00:16:00;;;;;;;0.70;0.70;;;;;;;7.40;83.67;97875.88;5032201;28;20086;-76
2023/12/23 00:18:25;;;;;;;0.80;0.80;;;;;;;7.48;83.35;97891.13;5031208;28;20045;-76
2023/12/23 00:20:50;;;;;;;0.70;0.70;;;;;;;7.34;84.96;97902.25;5031674;28;20057;-76
2023/12/23 00:23:16;;;;;;;0.75;0.75;;;;;;;7.24;85.89;97907.25;5032330;28;20048;-76
2023/12/23 00:25:41;;;;;;;0.80;0.80;;;;;;;7.26;85.40;97916.16;5047683;28;20118;-75
2023/12/23 00:28:07;;;;;;;0.70;0.70;;;;;;;7.25;85.59;97909.06;5030458;28;20140;-75
2023/12/23 00:30:32;;;;;;;0.80;0.80;;;;;;;7.24;85.51;97897.56;5035360;28;20822;-75
2023/12/23 00:32:58;;;;;;;0.80;0.80;;;;;;;7.15;86.84;97905.25;5038381;28;20036;-75
2023/12/23 00:35:26;;;;;;;0.80;0.80;;;;;;;7.18;86.58;97905.31;5020558;28;20041;-75
2023/12/23 00:37:52;;;;;;;0.80;0.80;;;;;;;7.14;86.55;97903.44;5033011;28;20033;-76
2023/12/23 00:40:17;;;;;;;0.77;0.77;;;;;;;7.10;86.68;97909.50;5028253;28;20036;-76
2023/12/23 00:42:43;;;;;;;0.80;0.80;;;;;;;7.12;86.22;97878.63;5029621;28;20120;-75
2023/12/23 00:45:09;;;;;;;0.80;0.80;;;;;;;7.14;86.42;97914.06;5031391;28;20042;-76
2023/12/23 00:47:34;;;;;;;0.80;0.80;;;;;;;7.13;86.56;97937.00;5034207;28;20154;-75
2023/12/23 00:50:01;;;;;;;0.80;0.80;;;;;;;7.18;85.63;97923.88;5028622;28;20124;-76
2023/12/23 00:52:27;;;;;;;0.80;0.80;;;;;;;7.14;85.71;97922.03;5028164;28;20102;-75
2023/12/23 00:54:52;;;;;;;0.80;0.80;;;;;;;7.15;86.10;97919.41;5027582;28;20033;-76
2023/12/23 00:57:18;;;;;;;0.80;0.80;;;;;;;7.10;86.39;97934.28;5026929;28;20048;-76
2023/12/23 00:59:43;;;;;;;0.80;0.80;;;;;;;7.17;85.52;97938.91;5029027;28;20131;-75
2023/12/23 01:02:09;;;;;;;0.80;0.80;;;;;;;7.12;86.08;97929.91;5036794;28;20180;-76
2023/12/23 01:04:38;;;;;;;0.80;0.80;;;;;;;7.08;86.32;97935.97;5029781;28;20086;-76
2023/12/23 01:07:06;;;;;;;0.80;0.80;;;;;;;7.12;86.19;97927.25;5028520;28;20073;-76
2023/12/23 01:09:31;;;;;;;0.80;0.80;;;;;;;7.08;86.25;97940.38;5034436;28;20089;-76
2023/12/23 01:11:57;;;;;;;0.80;0.80;;;;;;;7.08;86.67;97935.06;5024977;28;20593;-76
2023/12/23 01:14:22;;;;;;;0.88;0.88;;;;;;;7.06;86.72;97936.78;5036486;28;20116;-76
2023/12/23 01:16:48;;;;;;;0.80;0.80;;;;;;;7.01;87.21;97970.25;5035707;28;20033;-76
2023/12/23 01:19:13;;;;;;;0.90;0.90;;;;;;;7.05;87.12;97953.56;5029231;28;20136;-76
2023/12/23 01:21:39;;;;;;;0.80;0.80;;;;;;;6.97;87.87;97963.03;5029595;28;20037;-76
2023/12/23 01:24:04;;;;;;;0.80;0.80;;;;;;;6.97;87.71;97966.59;5033112;28;20809;-76
2023/12/23 01:26:30;;;;;;;0.80;0.80;;;;;;;6.91;88.34;97969.94;5033750;28;20041;-76
2023/12/23 01:29:00;;;;;;;0.80;0.80;;;;;;;6.93;88.18;97964.69;5035667;28;20033;-76
2023/12/23 01:31:29;;;;;;;0.80;0.80;;;;;;;6.91;88.04;97971.69;5034948;28;20042;-76
2023/12/23 01:33:55;;;;;;;0.70;0.70;;;;;;;6.90;87.88;97957.56;5030472;28;20479;-77
2023/12/23 01:36:23;;;;;;;0.80;0.80;;;;;;;6.88;88.39;97961.00;5032835;28;20036;-76
2023/12/23 01:38:48;;;;;;;0.80;0.80;;;;;;;6.97;87.70;97968.34;5020002;28;20128;-76
2023/12/23 01:41:14;;;;;;;0.80;0.80;;;;;;;6.88;88.64;97982.19;5033693;28;20049;-76
2023/12/23 01:43:39;;;;;;;0.80;0.80;;;;;;;6.94;87.00;97977.97;5033610;28;20086;-76
2023/12/23 01:46:05;;;;;;;0.85;0.85;;;;;;;6.98;87.04;97980.72;5032497;28;20088;-77
2023/12/23 01:48:42;;;;;;;0.80;0.80;;;;;;;7.05;86.17;97980.09;5032307;28;20164;-76
2023/12/23 01:51:08;;;;;;;;;;;;;;;7.05;86.06;97985.41;5032531;28;20051;-76
2023/12/23 01:53:34;;;;;;;0.80;0.80;;;;;;;7.05;85.77;97993.34;5032034;28;19928;-76
2023/12/23 01:56:00;;;;;;;0.80;0.80;;;;;;;7.05;86.06;97988.94;5038143;28;20033;-76
2023/12/23 01:58:26;;;;;;;0.80;0.80;;;;;;;7.02;86.02;97990.59;5031409;28;20040;-76
2023/12/23 02:00:51;;;;;;;0.80;0.80;;;;;;;7.14;85.41;97983.03;5031420;28;20045;-76
2023/12/23 02:03:17;;;;;;;0.82;0.82;;;;;;;6.98;86.84;97986.03;5032736;28;20110;-76
2023/12/23 02:05:45;;;;;;;0.80;0.80;;;;;;;6.96;86.97;97998.38;5033924;28;20605;-76
2023/12/23 02:08:11;;;;;;;0.80;0.80;;;;;;;6.90;86.84;98002.63;5029651;28;20056;-76
2023/12/23 02:10:37;;;;;;;0.80;0.80;;;;;;;7.03;86.30;97981.78;5031491;28;20037;-76
2023/12/23 02:13:25;;;;;;;0.90;0.90;;;;;;;7.05;85.53;97980.97;5033215;28;20047;-76
2023/12/23 02:15:51;;;;;;;0.75;0.75;;;;;;;7.10;84.82;97986.44;5039553;28;20045;-76
2023/12/23 02:18:19;;;;;;;0.90;0.90;;;;;;;7.10;85.34;97989.09;5032487;28;20029;-76
2023/12/23 02:20:50;;;;;;;;;;;;;;;7.05;85.34;97980.09;5036513;28;20065;-76
2023/12/23 02:23:17;;;;;;;0.90;0.90;;;;;;;7.06;84.79;98016.38;5030064;28;20058;-76
2023/12/23 02:25:53;;;;;;;0.80;0.80;;;;;;;7.11;84.48;97996.19;5032239;28;20387;-76
2023/12/23 02:28:22;;;;;;;0.80;0.80;;;;;;;7.15;84.18;98008.69;5030817;28;20814;-75
2023/12/23 02:30:49;;;;;;;0.80;0.80;;;;;;;7.18;84.22;98006.13;5030948;28;20045;-76
2023/12/23 02:33:16;;;;;;;0.90;0.90;;;;;;;7.23;83.34;97998.28;5039559;28;20044;-76
2023/12/23 02:35:41;;;;;;;0.80;0.80;;;;;;;7.25;83.33;97994.84;5048906;28;20045;-76
2023/12/23 02:38:07;;;;;;;0.85;0.85;;;;;;;7.28;83.02;97989.66;5030771;28;20526;-76
2023/12/23 02:40:34;;;;;;;0.90;0.90;;;;;;;7.30;82.94;98001.19;5034363;28;20033;-75
2023/12/23 02:43:01;;;;;;;0.70;0.70;;;;;;;7.37;82.48;98011.13;5031620;28;20056;-76
2023/12/23 02:45:27;;;;;;;0.80;0.80;;;;;;;7.45;81.68;98009.59;5031250;28;20064;-75
2023/12/23 02:47:53;;;;;;;0.80;0.80;;;;;;;7.39;82.33;98006.78;5032551;28;20116;-76
2023/12/23 02:50:18;;;;;;;0.80;0.80;;;;;;;7.48;82.36;98011.47;5030611;28;20041;-76
2023/12/23 02:52:44;;;;;;;0.80;0.80;;;;;;;7.42;82.10;98014.81;5016843;28;20113;-76
2023/12/23 02:55:09;;;;;;;0.80;0.80;;;;;;;7.36;82.85;98013.75;5032771;28;20383;-76
2023/12/23 02:57:34;;;;;;;0.80;0.80;;;;;;;7.37;82.49;98023.50;5031655;28;20033;-76
2023/12/23 03:00:00;;;;;;;0.80;0.80;;;;;;;7.38;82.80;98020.00;5029971;28;20123;-75
2023/12/23 03:02:25;;;;;;;0.80;0.80;;;;;;;7.41;82.42;98025.38;5031623;28;20636;-76
2023/12/23 03:04:53;;;;;;;0.70;0.70;;;;;;;7.40;82.71;98036.88;5028816;28;20035;-76
2023/12/23 03:07:19;;;;;;;0.80;0.80;;;;;;;7.46;81.90;98027.31;5022090;28;20041;-76
2023/12/23 03:09:44;;;;;;;0.80;0.80;;;;;;;7.43;81.71;98005.13;5029735;28;20509;-76
2023/12/23 03:12:10;;;;;;;0.80;0.80;;;;;;;7.37;82.05;98023.50;5030324;28;20040;-76
2023/12/23 03:14:35;;;;;;;0.77;0.77;;;;;;;7.33;81.82;98030.47;5030117;28;20049;-76
2023/12/23 03:17:00;;;;;;;0.80;0.80;;;;;;;7.35;81.90;98026.13;5030229;28;20028;-76
2023/12/23 03:19:26;;;;;;;0.80;0.80;;;;;;;7.31;81.81;98025.97;5028746;28;20056;-76
2023/12/23 03:21:52;;;;;;;0.80;0.80;;;;;;;7.30;82.16;98016.22;5038644;28;20632;-76
2023/12/23 03:24:17;;;;;;;0.80;0.80;;;;;;;7.24;82.25;98021.34;5030446;28;20033;-76
2023/12/23 03:26:44;;;;;;;0.90;0.90;;;;;;;7.29;82.10;98017.97;5035216;28;20075;-76
2023/12/23 03:29:09;;;;;;;0.80;0.80;;;;;;;7.15;83.03;98016.66;5030858;28;20068;-76
2023/12/23 03:31:35;;;;;;;0.70;0.70;;;;;;;7.16;82.12;98023.75;5037050;28;20037;-76
2023/12/23 03:34:02;;;;;;;0.80;0.80;;;;;;;7.10;82.55;98019.16;5035557;28;20042;-76
2023/12/23 03:36:27;;;;;;;0.80;0.80;;;;;;;7.05;83.08;98009.25;5032028;28;20412;-76
2023/12/23 03:38:53;;;;;;;0.73;0.73;;;;;;;7.11;82.29;98023.59;5031578;28;20045;-76
2023/12/23 03:41:19;;;;;;;0.80;0.80;;;;;;;7.08;82.50;98014.63;5036020;28;20037;-76
2023/12/23 03:43:44;;;;;;;0.80;0.80;;;;;;;7.12;82.56;98022.75;5029337;28;20099;-76
2023/12/23 03:46:10;;;;;;;0.80;0.80;;;;;;;7.03;83.08;98032.16;5032071;28;20045;-76
2023/12/23 03:48:35;;;;;;;0.80;0.80;;;;;;;7.03;83.14;98043.66;5034294;28;20102;-76
2023/12/23 03:51:01;;;;;;;0.90;0.90;;;;;;;7.11;82.17;98033.31;5029916;28;20509;-76
2023/12/23 03:53:26;;;;;;;0.70;0.70;;;;;;;7.08;82.35;98034.09;5030604;28;20127;-76
2023/12/23 03:55:52;;;;;;;0.90;0.90;;;;;;;7.07;83.09;98032.31;5035972;28;20091;-77
2023/12/23 03:58:17;;;;;;;0.80;0.80;;;;;;;7.07;82.13;98036.72;5028750;28;20172;-76
2023/12/23 04:00:42;;;;;;;0.70;0.70;;;;;;;7.07;82.49;98034.97;5028719;28;20725;-76
2023/12/23 04:03:08;;;;;;;0.80;0.80;;;;;;;6.99;82.44;98015.25;5019402;28;20382;-76
2023/12/23 04:05:33;;;;;;;0.80;0.80;;;;;;;6.98;83.06;98034.66;5018153;28;20048;-76
2023/12/23 04:07:59;;;;;;;0.90;0.90;;;;;;;7.02;82.62;98033.91;5032387;28;20641;-76
2023/12/23 04:10:24;;;;;;;0.73;0.73;;;;;;;7.03;82.25;98025.09;5030317;28;20045;-76
2023/12/23 04:12:50;;;;;;;0.90;0.90;;;;;;;7.01;82.28;98029.47;5034556;28;20038;-76
2023/12/23 04:15:16;;;;;;;0.80;0.80;;;;;;;7.06;82.25;98029.63;5029013;28;20041;-76
2023/12/23 04:17:42;;;;;;;0.80;0.80;;;;;;;7.07;81.69;98028.75;5031733;28;20598;-76
2023/12/23 04:20:08;;;;;;;0.80;0.80;;;;;;;7.13;81.34;98023.63;5028882;28;20033;-76
2023/12/23 04:22:34;;;;;;;0.90;0.90;;;;;;;7.15;81.70;98008.69;5033140;28;20385;-76
2023/12/23 04:24:59;;;;;;;0.70;0.70;;;;;;;7.16;81.47;98021.09;5031256;28;20033;-77
2023/12/23 04:27:25;;;;;;;0.80;0.80;;;;;;;7.12;81.42;98029.81;5035180;28;20686;-76
2023/12/23 04:29:51;;;;;;;0.80;0.80;;;;;;;7.10;81.36;98012.97;5031668;28;20502;-76
2023/12/23 04:32:17;;;;;;;0.90;0.90;;;;;;;7.12;81.41;98022.75;5031350;28;20037;-76
2023/12/23 04:34:42;;;;;;;0.70;0.70;;;;;;;7.17;81.06;98017.59;5033217;28;20048;-76
2023/12/23 04:37:08;;;;;;;0.80;0.80;;;;;;;7.17;80.96;98021.13;5037145;28;20680;-76
2023/12/23 04:39:33;;;;;;;0.90;0.90;;;;;;;7.20;81.12;98020.34;5032714;28;20045;-76
2023/12/23 04:42:00;;;;;;;0.80;0.80;;;;;;;7.20;80.49;98034.50;5032007;28;20044;-76
2023/12/23 04:44:29;;;;;;;0.90;0.90;;;;;;;7.29;79.95;98020.63;5039077;28;20062;-75
2023/12/23 04:46:55;;;;;;;0.90;0.90;;;;;;;7.41;78.63;98028.94;5049331;28;20036;-76
2023/12/23 04:49:20;;;;;;;0.80;0.80;;;;;;;7.46;78.55;98022.00;5038146;28;20636;-76
2023/12/23 04:51:46;;;;;;;0.80;0.80;;;;;;;7.51;77.61;98023.91;5038350;28;20032;-76
2023/12/23 04:54:12;;;;;;;0.80;0.80;;;;;;;7.53;77.67;98025.78;5035141;28;20041;-75
2023/12/23 04:56:41;;;;;;;0.80;0.80;;;;;;;7.55;77.33;98018.75;5048756;28;20036;-75
2023/12/23 04:59:08;;;;;;;0.70;0.70;;;;;;;7.52;77.81;98020.41;5037718;28;20037;-76
2023/12/23 05:01:33;;;;;;;0.80;0.80;;;;;;;7.56;76.97;97993.09;5034923;28;20446;-76
2023/12/23 05:03:59;;;;;;;0.80;0.80;;;;;;;7.50;77.23;98024.78;5039672;28;20491;-76
2023/12/23 05:06:24;;;;;;;0.80;0.80;;;;;;;7.38;77.71;98015.59;5049398;28;20045;-76
2023/12/23 05:08:50;;;;;;;0.80;0.80;;;;;;;7.27;78.10;98011.69;5034668;28;20081;-76
2023/12/23 05:11:15;;;;;;;0.80;0.80;;;;;;;7.20;78.81;98020.34;5024185;28;20094;-76
2023/12/23 05:13:41;;;;;;;0.80;0.80;;;;;;;7.15;78.94;98030.81;5033529;28;20124;-76
2023/12/23 05:16:07;;;;;;;0.80;0.80;;;;;;;7.16;79.20;98031.72;5029452;28;20037;-76
2023/12/23 05:18:32;;;;;;;0.80;0.80;;;;;;;7.16;78.64;98032.59;5034129;28;20064;-76
2023/12/23 05:20:58;;;;;;;0.80;0.80;;;;;;;7.29;78.45;98025.94;5035002;28;20098;-76
2023/12/23 05:23:23;;;;;;;0.82;0.82;;;;;;;7.31;77.97;98026.88;5031063;28;20076;-77
2023/12/23 05:25:50;;;;;;;0.80;0.80;;;;;;;7.28;78.39;98024.13;5034453;28;20041;-76
2023/12/23 05:28:16;;;;;;;0.88;0.88;;;;;;;7.18;79.12;98004.34;5035835;28;21216;-76
2023/12/23 05:30:42;;;;;;;0.80;0.80;;;;;;;7.07;80.50;98021.69;5033943;28;20041;-76
2023/12/23 05:33:07;;;;;;;0.80;0.80;;;;;;;7.10;80.10;98032.41;5029496;28;20040;-76
2023/12/23 05:35:32;;;;;;;0.90;0.90;;;;;;;7.23;79.51;98017.75;5034570;28;20052;-76
2023/12/23 05:37:58;;;;;;;0.80;0.80;;;;;;;7.20;80.11;98025.66;5034587;28;20040;-76
2023/12/23 05:40:23;;;;;;;0.80;0.80;;;;;;;7.05;80.86;98022.53;5040961;28;20045;-76
2023/12/23 05:42:49;;;;;;;0.80;0.80;;;;;;;7.07;81.45;98032.31;5030892;28;20542;-76
2023/12/23 05:45:14;;;;;;;0.80;0.80;;;;;;;7.06;81.47;98032.28;5032356;28;20099;-76
2023/12/23 05:47:42;;;;;;;0.70;0.70;;;;;;;6.89;82.82;98027.31;5031048;28;20041;-76
2023/12/23 05:50:09;;;;;;;0.80;0.80;;;;;;;6.94;82.92;98017.75;5034138;28;20191;-76
2023/12/23 05:52:35;;;;;;;0.90;0.90;;;;;;;6.86;83.77;98035.19;5029652;28;20115;-74
2023/12/23 05:55:00;;;;;;;0.80;0.80;;;;;;;6.77;84.58;98028.69;5030044;28;20041;-75
2023/12/23 05:57:26;;;;;;;0.70;0.70;;;;;;;6.69;85.46;98029.31;5031821;28;20171;-76
2023/12/23 05:59:51;;;;;;;0.82;0.82;;;;;;;6.73;85.38;98035.63;5033838;28;20087;-76
2023/12/23 06:02:16;;;;;;;0.80;0.80;;;;;;;6.67;86.43;98052.25;5027746;28;20158;-76
2023/12/23 06:04:42;;;;;;;0.88;0.88;;;;;;;6.60;87.13;98029.03;5032022;28;20062;-76
2023/12/23 06:07:07;;;;;;;0.82;0.82;;;;;;;6.57;87.30;98014.78;5030628;28;20349;-76
2023/12/23 06:09:35;;;;;;;0.90;0.90;;;;;;;6.53;87.97;98028.78;5032955;28;20041;-75
2023/12/23 06:12:00;;;;;;;0.80;0.80;;;;;;;6.54;87.78;98025.28;5029967;28;20037;-76
2023/12/23 06:14:26;;;;;;;0.80;0.80;;;;;;;6.54;88.06;98014.69;5038136;28;20042;-76
2023/12/23 06:16:51;;;;;;;0.80;0.80;;;;;;;6.57;88.02;98018.34;5038874;28;20029;-76
2023/12/23 06:19:16;;;;;;;0.70;0.70;;;;;;;6.52;88.27;98032.28;5031837;28;20071;-76
2023/12/23 06:21:45;;;;;;;0.80;0.80;;;;;;;6.49;88.69;98025.13;5033370;28;20040;-76
2023/12/23 06:24:12;;;;;;;0.80;0.80;;;;;;;6.55;88.45;98003.22;5030329;28;20168;-76
2023/12/23 06:26:37;;;;;;;0.82;0.82;;;;;;;6.53;87.77;98021.72;5016548;28;20033;-75
2023/12/23 06:29:05;;;;;;;0.90;0.90;;;;;;;6.56;87.89;98018.25;5033441;28;20033;-76
2023/12/23 06:31:33;;;;;;;0.80;0.80;;;;;;;6.56;87.54;98010.31;5030136;28;20067;-76
2023/12/23 06:33:58;;;;;;;0.80;0.80;;;;;;;6.62;86.89;98010.53;5029488;28;20044;-76
2023/12/23 06:36:23;;;;;;;0.90;0.90;;;;;;;6.74;85.82;98007.38;5030122;28;20587;-75
2023/12/23 06:38:49;;;;;;;0.80;0.80;;;;;;;6.72;85.58;98011.75;5030440;28;20121;-75
2023/12/23 06:41:14;;;;;;;0.80;0.80;;;;;;;6.73;85.54;98011.78;5033240;28;20045;-76
2023/12/23 06:43:40;;;;;;;0.82;0.82;;;;;;;6.74;85.69;98000.31;5030117;28;20033;-76
2023/12/23 06:46:05;;;;;;;0.70;0.70;;;;;;;6.82;84.90;98000.56;5030572;28;20069;-76
2023/12/23 06:48:31;;;;;;;0.80;0.80;;;;;;;6.84;84.76;97996.22;5030124;28;20227;-75
2023/12/23 06:50:56;;;;;;;0.90;0.90;;;;;;;6.77;85.51;98000.44;5029010;28;20123;-76
2023/12/23 06:53:21;;;;;;;0.80;0.80;;;;;;;6.78;85.05;98007.53;5032096;28;20037;-76
2023/12/23 06:55:50;;;;;;;0.90;0.90;;;;;;;6.87;84.40;97985.72;5029677;28;20043;-76
2023/12/23 06:58:15;;;;;;;0.80;0.80;;;;;;;6.76;85.01;97990.69;5031011;28;20410;-76
2023/12/23 07:00:40;;;;;;;0.90;0.90;;;;;;;6.83;84.57;97987.34;5029269;28;20044;-76
2023/12/23 07:03:06;;;;;;;0.90;0.90;;;;;;;6.88;84.19;97998.13;5028928;28;20118;-76
2023/12/23 07:05:31;;;;;;;0.80;0.80;;;;;;;6.92;83.49;97995.59;5033540;28;20130;-76
2023/12/23 07:07:57;;;;;;;0.80;0.80;;;;;;;6.91;83.38;97991.16;5029922;28;20033;-76
2023/12/23 07:10:22;;;;;;;0.70;0.70;;;;;;;6.86;84.12;98000.72;5029659;28;20449;-76
2023/12/23 07:12:48;;;;;;;0.90;0.90;;;;;;;6.93;83.37;97991.19;5037783;28;20037;-76
2023/12/23 07:15:13;;;;;;;0.80;0.80;;;;;;;6.92;83.62;97979.69;5032912;28;20048;-76
2023/12/23 07:17:39;;;;;;;0.90;0.90;;;;;;;6.89;83.50;98002.56;5031255;28;20049;-76
2023/12/23 07:20:05;;;;;;;0.80;0.80;;;;;;;6.88;84.05;97999.00;5027545;28;20100;-76
2023/12/23 07:22:30;;;;;;;0.70;0.70;;;;;;;6.95;83.21;98000.13;5028245;28;20055;-76
2023/12/23 07:24:56;;;;;;;0.80;0.80;;;;;;;6.94;83.38;97993.88;5029732;28;20613;-76
2023/12/23 07:27:21;;;;;;;0.80;0.80;;;;;;;6.91;83.27;97998.22;5020629;28;20033;-76
2023/12/23 07:29:48;;;;;;;0.90;0.90;;;;;;;6.90;83.25;97997.31;5029719;28;20070;-77
2023/12/23 07:32:13;;;;;;;0.80;0.80;;;;;;;6.97;83.26;97993.09;5030566;28;20060;-76
2023/12/23 07:34:39;;;;;;;0.80;0.80;;;;;;;6.97;82.83;97995.75;5031295;28;20495;-76
2023/12/23 07:37:04;;;;;;;0.80;0.80;;;;;;;7.10;81.86;97992.63;5030922;28;20130;-77
2023/12/23 07:39:29;;;;;;;0.80;0.80;;;;;;;7.13;81.59;97992.72;5030352;28;20134;-77
2023/12/23 07:41:57;;;;;;;0.80;0.80;;;;;;;7.26;80.95;97991.34;5028923;28;20074;-77
2023/12/23 07:44:24;;;;;;;0.80;0.80;;;;;;;7.23;80.83;98004.50;5030426;28;20057;-77
2023/12/23 07:46:49;;;;;;;0.90;0.90;;;;;;;7.22;80.94;98004.47;5031878;28;20028;-77
2023/12/23 07:49:15;;;;;;;0.80;0.80;;;;;;;7.21;80.55;98003.56;5032544;28;20410;-77
2023/12/23 07:51:41;;;;;;;0.80;0.80;;;;;;;7.25;80.31;97997.50;5033148;28;20045;-78
2023/12/23 07:54:06;;;;;;;0.82;0.82;;;;;;;7.24;80.67;98008.97;5033833;28;20051;-77
2023/12/23 07:56:31;;;;;;;0.80;0.80;;;;;;;7.19;80.82;98015.91;5030944;28;20053;-77
2023/12/23 07:58:57;;;;;;;0.80;0.80;;;;;;;7.14;80.77;98004.25;5031043;28;20045;-77
2023/12/23 08:01:23;;;;;;;0.75;0.75;;;;;;;7.18;80.46;98006.13;5027286;28;20045;-77
2023/12/23 08:03:49;;;;;;;0.80;0.80;;;;;;;7.21;80.64;98016.84;5028970;28;20041;-78
2023/12/23 08:06:16;;;;;;;0.90;0.90;;;;;;;7.10;80.69;98031.53;5031304;28;20475;-78
2023/12/23 08:08:42;;;;;;;0.70;0.70;;;;;;;7.25;79.93;98031.09;5031216;28;20496;-78
2023/12/23 08:11:08;;;;;;;0.80;0.80;;;;;;;7.32;79.32;98018.03;5045701;28;20044;-77
2023/12/23 08:13:34;;;;;;;0.80;0.80;;;;;;;7.41;78.61;98026.28;5031012;28;20049;-77
2023/12/23 08:15:59;;;;;;;0.80;0.80;;;;;;;7.51;77.61;98024.81;5033327;28;20033;-77
2023/12/23 08:18:25;;;;;;;0.80;0.80;;;;;;;7.52;78.02;98023.03;5040224;28;20045;-77
2023/12/23 08:20:50;;;;;;;0.70;0.70;;;;;;;7.56;77.76;98035.56;5036708;28;20059;-77
2023/12/23 08:23:15;;;;;;;0.80;0.80;;;;;;;7.53;77.79;98031.06;5037064;28;20517;-76
2023/12/23 08:25:41;;;;;;;0.80;0.80;;;;;;;7.53;77.89;98023.13;5037004;28;20567;-76
2023/12/23 08:28:07;;;;;;;0.80;0.80;;;;;;;7.49;78.40;98013.25;5037338;28;20044;-77
2023/12/23 08:30:32;;;;;;;0.80;0.80;;;;;;;7.46;78.09;98006.09;5036685;28;20685;-77
2023/12/23 08:32:58;;;;;;;0.90;0.90;;;;;;;7.44;79.20;98017.53;5033777;28;20044;-76
2023/12/23 08:35:24;;;;;;;0.77;0.77;;;;;;;7.41;79.21;98022.75;5034980;28;20045;-76
2023/12/23 08:37:52;;;;;;;0.73;0.73;;;;;;;7.39;79.18;98025.34;5038052;28;20066;-76
2023/12/23 08:40:17;;;;;;;0.80;0.80;;;;;;;7.43;78.91;98035.22;5035386;28;20483;-76
2023/12/23 08:42:44;;;;;;;0.90;0.90;;;;;;;7.52;78.36;98009.78;5038945;28;20082;-76
2023/12/23 08:45:09;;;;;;;0.90;0.90;;;;;;;7.51;78.32;98021.25;5035544;28;20044;-76
2023/12/23 08:47:35;;;;;;;0.80;0.80;;;;;;;7.66;77.35;98027.00;5038239;28;20363;-76
2023/12/23 08:50:01;;;;;;;0.90;0.90;;;;;;;7.68;77.13;98015.59;5036815;28;20041;-76
2023/12/23 08:52:27;;;;;;;0.80;0.80;;;;;;;7.66;77.33;98024.34;5034487;28;20175;-76
2023/12/23 08:54:53;;;;;;;0.90;0.90;;;;;;;7.76;76.21;98028.16;5036098;28;20134;-77
2023/12/23 08:57:18;;;;;;;0.80;0.80;;;;;;;7.89;75.46;98027.66;5042639;28;20498;-75
2023/12/23 08:59:44;;;;;;;0.90;0.90;;;;;;;7.92;74.82;98003.88;5034840;28;20035;-76
2023/12/23 09:02:09;;;;;;;0.80;0.80;;;;;;;7.94;74.63;98021.63;5033608;28;20037;-76
2023/12/23 09:04:35;;;;;;;0.80;0.80;;;;;;;7.98;74.67;98018.22;5035242;28;20045;-76
2023/12/23 09:07:01;;;;;;;0.70;0.70;;;;;;;7.99;74.05;98008.47;5034768;28;20121;-76
2023/12/23 09:09:27;;;;;;;0.80;0.80;;;;;;;8.14;72.84;98000.03;5035346;28;20037;-76
2023/12/23 09:11:52;;;;;;;0.80;0.80;;;;;;;8.09;73.29;98010.53;5032999;28;20033;-76
2023/12/23 09:14:18;;;;;;;0.77;0.77;;;;;;;8.09;73.95;98009.63;5034313;28;20052;-77
2023/12/23 09:16:43;;;;;;;0.80;0.80;;;;;;;8.07;73.40;98004.28;5035442;28;20301;-76
2023/12/23 09:19:09;;;;;;;0.80;0.80;;;;;;;8.14;72.81;98023.94;5033475;28;20049;-77
2023/12/23 09:21:34;;;;;;;0.70;0.70;;;;;;;8.16;72.54;98004.53;5035057;28;20041;-77
2023/12/23 09:24:00;;;;;;;0.70;0.70;;;;;;;8.14;72.61;98010.66;5033836;28;20388;-76
2023/12/23 09:26:25;;;;;;;0.70;0.70;;;;;;;8.16;72.45;98033.75;5033680;28;20622;-77
2023/12/23 09:28:54;;;;;;;0.70;0.70;;;;;;;8.18;72.21;98039.09;5032804;28;20847;-78
2023/12/23 09:31:19;;;;;;;0.70;0.70;;;;;;;8.09;72.74;98034.44;5030948;28;20691;-77
2023/12/23 09:33:45;;;;;;;0.80;0.80;;;;;;;8.08;73.17;98034.41;5031964;28;20081;-77
2023/12/23 09:36:11;;;;;;;0.70;0.70;;;;;;;7.91;74.25;98044.56;5032994;28;20056;-77
2023/12/23 09:38:36;;;;;;;0.80;0.80;;;;;;;7.77;75.15;98059.22;5035719;28;20040;-77
2023/12/23 09:41:02;;;;;;;0.80;0.80;;;;;;;7.73;75.06;98058.22;5033449;28;20601;-77
2023/12/23 09:43:29;;;;;;;0.90;0.90;;;;;;;7.81;74.74;98066.38;5032829;28;20029;-78
2023/12/23 09:45:56;;;;;;;0.70;0.70;;;;;;;7.89;74.52;98081.69;5035286;28;20044;-78
2023/12/23 09:48:22;;;;;;;0.80;0.80;;;;;;;8.06;73.31;98065.34;5030923;28;20065;-78
2023/12/23 09:50:48;;;;;;;0.70;0.70;;;;;;;8.12;72.99;98060.19;5033876;28;20132;-77
2023/12/23 09:53:13;;;;;;;0.75;0.75;;;;;;;8.11;73.65;98077.91;5030044;28;20407;-78
2023/12/23 09:55:40;;;;;;;0.80;0.80;;;;;;;8.13;72.51;98062.00;5028904;28;20055;-77
2023/12/23 09:58:06;;;;;;;0.80;0.80;;;;;;;8.13;72.53;98057.56;5031423;28;20563;-78
2023/12/23 10:00:32;;;;;;;0.80;0.80;;;;;;;8.12;72.43;98073.47;5029165;28;20041;-77
2023/12/23 10:02:59;;;;;;;0.80;0.80;;;;;;;8.15;72.68;98041.69;5033844;28;20037;-77
2023/12/23 10:05:29;;;;;;;0.70;0.70;;;;;;;8.19;72.20;98056.84;5034619;28;20052;-78
2023/12/23 10:07:57;;;;;;;0.80;0.80;;;;;;;8.14;72.33;98055.81;5049928;28;20042;-77
2023/12/23 10:10:26;;;;;;;0.80;0.80;;;;;;;8.13;72.87;98080.59;5033187;28;20090;-77
2023/12/23 10:12:52;;;;;;;0.70;0.70;;;;;;;8.15;71.96;98068.28;5034901;28;20045;-77
2023/12/23 10:15:18;;;;;;;0.75;0.75;;;;;;;8.21;72.06;98073.75;5032712;28;20730;-76
2023/12/23 10:17:43;;;;;;;0.80;0.80;;;;;;;8.21;71.72;98052.50;5031570;28;20043;-78
2023/12/23 10:20:13;;;;;;;0.75;0.75;;;;;;;8.22;71.88;98079.09;5033043;28;20049;-77
2023/12/23 10:22:44;;;;;;;0.80;0.80;;;;;;;8.21;71.25;98057.81;5015991;28;20493;-77
2023/12/23 10:25:10;;;;;;;0.70;0.70;;;;;;;8.27;71.15;98063.28;5034800;28;20156;-78
2023/12/23 10:27:39;;;;;;;0.80;0.80;;;;;;;8.26;71.81;98068.56;5035625;28;20124;-77
2023/12/23 10:30:08;;;;;;;0.73;0.73;;;;;;;8.31;70.96;98058.94;5032016;28;20072;-77
2023/12/23 10:32:35;;;;;;;0.70;0.70;;;;;;;8.25;72.25;98048.16;5035357;28;20037;-77
2023/12/23 10:35:02;;;;;;;0.90;0.90;;;;;;;8.24;71.24;98073.84;5033404;28;20076;-77
2023/12/23 10:37:29;;;;;;;0.70;0.70;;;;;;;8.27;71.07;98068.59;5037146;28;20063;-77
2023/12/23 10:40:01;;;;;;;0.85;0.85;;;;;;;8.29;71.52;98065.97;5033267;28;20045;-78
2023/12/23 10:42:31;;;;;;;0.65;0.65;;;;;;;8.25;71.44;98053.47;5028390;28;20045;-77
2023/12/23 10:44:57;;;;;;;;;;;;;;;8.22;71.67;98048.97;5035926;28;20048;-77
2023/12/23 10:47:24;;;;;;;0.80;0.80;;;;;;;8.20;72.09;98063.97;5034480;28;20283;-77
2023/12/23 10:49:51;;;;;;;0.75;0.75;;;;;;;8.20;71.93;98061.31;5035545;28;20045;-77
2023/12/23 10:52:18;;;;;;;0.90;0.90;;;;;;;8.22;71.68;98063.16;5030041;28;20045;-77
2023/12/23 10:54:44;;;;;;;0.80;0.80;;;;;;;8.27;71.84;98055.31;5038728;28;20786;-77
2023/12/23 10:57:11;;;;;;;0.70;0.70;;;;;;;8.23;71.76;98067.59;5034999;28;20132;-77
2023/12/23 10:59:36;;;;;;;0.80;0.80;;;;;;;8.34;71.46;98059.03;5032667;28;20054;-76
2023/12/23 11:02:13;;;;;;;0.70;0.70;;;;;;;8.36;70.84;98058.25;5030667;28;21479;-77
2023/12/23 11:04:43;;;;;;;0.88;0.88;;;;;;;8.33;71.46;98068.75;5030252;28;20080;-77
2023/12/23 11:07:11;;;;;;;0.70;0.70;;;;;;;8.36;71.24;98076.84;5043141;28;20073;-77
2023/12/23 11:09:38;;;;;;;0.70;0.70;;;;;;;8.33;71.30;98086.44;5035272;28;20098;-78
2023/12/23 11:12:04;;;;;;;;;;;;;;;8.38;71.23;98064.50;5048708;28;20494;-76
2023/12/23 11:14:30;;;;;;;0.80;0.80;;;;;;;8.36;71.07;98076.84;5033514;28;19912;-77
2023/12/23 11:16:56;;;;;;;0.80;0.80;;;;;;;8.35;71.05;98052.88;5032075;28;20483;-78
2023/12/23 11:19:22;;;;;;;0.70;0.70;;;;;;;8.34;72.04;98048.41;5031541;28;20408;-77
2023/12/23 11:21:47;;;;;;;0.80;0.80;;;;;;;8.29;72.34;98060.66;5033351;28;20047;-77
2023/12/23 11:24:33;;;;;;;0.80;0.80;;;;;;;8.31;71.47;98027.94;5028884;28;20033;-76
2023/12/23 11:26:58;;;;;;;0.70;0.70;;;;;;;8.33;71.65;98063.44;5030968;28;20044;-77
2023/12/23 11:29:24;;;;;;;0.80;0.80;;;;;;;8.34;71.71;98061.69;5034599;28;20028;-77
2023/12/23 11:31:49;;;;;;;0.80;0.80;;;;;;;8.31;71.63;98050.97;5030253;28;20040;-79
2023/12/23 11:34:16;;;;;;;0.70;0.70;;;;;;;8.38;71.26;98058.28;5030744;28;20041;-76
2023/12/23 11:36:43;;;;;;;0.80;0.80;;;;;;;8.32;72.07;98052.78;5031823;28;20518;-75
2023/12/23 11:39:15;;;;;;;0.80;0.80;;;;;;;8.32;71.23;98071.38;5037024;28;20068;-75